createdAt,value
2018-09-14T00:01:43.100Z,98723.75
2018-09-14T00:04:11.680Z,98727.02
2018-09-14T00:06:40.204Z,98727.84
2018-09-14T00:09:11.736Z,98728.87
2018-09-14T00:11:41.109Z,98720.11
2018-09-14T00:14:09.956Z,98721.63
2018-09-14T00:16:39.176Z,98724.85
2018-09-14T00:19:07.734Z,98719.63
2018-09-14T00:21:36.189Z,98716.52
2018-09-14T00:24:12.110Z,98722.80
2018-09-14T00:26:40.670Z,98722.13
2018-09-14T00:29:09.445Z,98722.41
2018-09-14T00:31:37.791Z,98724.65
2018-09-14T00:34:06.443Z,98720.83
2018-09-14T00:36:34.939Z,98728.64
2018-09-14T00:39:03.849Z,98725.80
2018-09-14T00:41:32.675Z,98725.95
2018-09-14T00:44:01.204Z,98722.96
2018-09-14T00:46:29.782Z,98719.38
2018-09-14T00:48:58.069Z,98722.75
2018-09-14T00:51:26.688Z,98723.77
2018-09-14T00:53:56.669Z,98725.26
2018-09-14T00:56:25.222Z,98719.56
2018-09-14T00:58:53.884Z,98720.73
2018-09-14T01:01:22.312Z,98722.01
2018-09-14T01:03:50.977Z,98713.95
2018-09-14T01:06:19.500Z,98717.89
2018-09-14T01:08:48.039Z,98715.45
2018-09-14T01:11:17.686Z,98716.66
2018-09-14T01:13:46.197Z,98719.95
2018-09-14T01:16:14.985Z,98723.81
2018-09-14T01:18:43.980Z,98723.05
2018-09-14T01:21:12.562Z,98718.27
2018-09-14T01:23:40.824Z,98716.50
2018-09-14T01:26:09.765Z,98712.81
2018-09-14T01:28:37.995Z,98716.36
2018-09-14T01:31:06.892Z,98705.14
2018-09-14T01:33:35.400Z,98708.22
2018-09-14T01:36:11.012Z,98708.45
2018-09-14T01:38:39.864Z,98706.13
2018-09-14T01:41:09.140Z,98713.13
2018-09-14T01:43:37.582Z,98711.63
2018-09-14T01:46:06.253Z,98711.16
2018-09-14T01:48:34.502Z,98711.02
2018-09-14T01:51:03.038Z,98707.61
2018-09-14T01:53:31.926Z,98709.52
2018-09-14T01:56:00.675Z,98708.73
2018-09-14T01:58:29.549Z,98710.46
2018-09-14T02:00:58.354Z,98707.58
2018-09-14T02:03:27.112Z,98714.71
2018-09-14T02:05:55.334Z,98710.11
2018-09-14T02:08:24.760Z,98706.02
2018-09-14T02:10:53.179Z,98698.02
2018-09-14T02:13:21.784Z,98702.47
2018-09-14T02:15:50.747Z,98696.79
2018-09-14T02:18:19.360Z,98687.66
2018-09-14T02:20:47.603Z,98693.97
2018-09-14T02:23:16.595Z,98688.78
2018-09-14T02:25:45.149Z,98691.03
2018-09-14T02:28:13.397Z,98684.47
2018-09-14T02:30:42.587Z,98685.62
2018-09-14T02:33:11.104Z,98680.17
2018-09-14T02:35:39.949Z,98678.81
2018-09-14T02:38:08.476Z,98683.53
2018-09-14T02:40:36.825Z,98676.78
2018-09-14T02:43:05.379Z,98679.44
2018-09-14T02:45:34.332Z,98678.69
2018-09-14T02:48:03.302Z,98676.23
2018-09-14T02:50:32.887Z,98679.25
2018-09-14T02:53:02.044Z,98687.34
2018-09-14T02:55:30.731Z,98679.92
2018-09-14T02:57:59.809Z,98677.23
2018-09-14T03:00:28.055Z,98683.53
2018-09-14T03:02:57.103Z,98675.16
2018-09-14T03:05:26.365Z,98673.38
2018-09-14T03:07:54.644Z,98668.94
2018-09-14T03:10:23.565Z,98675.66
2018-09-14T03:12:52.488Z,98670.52
2018-09-14T03:15:20.826Z,98675.67
2018-09-14T03:17:49.946Z,98676.20
2018-09-14T03:20:18.207Z,98674.74
2018-09-14T03:22:47.080Z,98673.64
2018-09-14T03:25:15.347Z,98674.78
2018-09-14T03:27:44.089Z,98674.05
2018-09-14T03:30:12.929Z,98682.48
2018-09-14T03:32:41.209Z,98689.94
2018-09-14T03:35:10.100Z,98683.09
2018-09-14T03:37:38.668Z,98682.34
2018-09-14T03:40:07.582Z,98677.48
2018-09-14T03:42:36.963Z,98681.19
2018-09-14T03:45:06.334Z,98684.93
2018-09-14T03:47:34.922Z,98680.39
2018-09-14T03:50:04.341Z,98683.69
2018-09-14T03:52:32.883Z,98684.84
2018-09-14T03:55:02.076Z,98687.73
2018-09-14T03:57:31.852Z,98682.65
2018-09-14T04:00:00.768Z,98679.92
2018-09-14T04:02:29.265Z,98683.41
2018-09-14T04:04:57.531Z,98679.16
2018-09-14T04:07:26.096Z,98680.92
2018-09-14T04:09:54.640Z,98678.45
2018-09-14T04:12:23.517Z,98682.91
2018-09-14T04:14:52.031Z,98675.72
2018-09-14T04:17:20.298Z,98678.54
2018-09-14T04:19:48.788Z,98675.57
2018-09-14T04:22:17.864Z,98679.00
2018-09-14T04:24:46.109Z,98677.80
2018-09-14T04:27:15.568Z,98686.30
2018-09-14T04:29:44.157Z,98681.70
2018-09-14T04:32:12.412Z,98681.56
2018-09-14T04:34:40.748Z,98679.57
2018-09-14T04:37:09.360Z,98682.91
2018-09-14T04:39:38.239Z,98681.41
2018-09-14T04:42:07.514Z,98684.14
2018-09-14T04:44:35.752Z,98682.65
2018-09-14T04:47:05.408Z,98684.20
2018-09-14T04:49:33.953Z,98688.13
2018-09-14T04:52:05.083Z,98686.14
2018-09-14T04:54:33.320Z,98691.50
2018-09-14T04:57:02.028Z,98694.09
2018-09-14T04:59:30.384Z,98695.68
2018-09-14T05:01:58.577Z,98698.26
2018-09-14T05:04:27.109Z,98700.89
2018-09-14T05:06:55.383Z,98696.86
2018-09-14T05:09:24.826Z,98710.09
2018-09-14T05:11:53.354Z,98713.70
2018-09-14T05:14:21.684Z,98709.02
2018-09-14T05:16:49.940Z,98707.20
2018-09-14T05:19:18.498Z,98709.02
2018-09-14T05:21:46.881Z,98707.20
2018-09-14T05:24:15.130Z,98710.31
2018-09-14T05:26:44.304Z,98711.11
2018-09-14T05:29:15.377Z,98712.16
2018-09-14T05:31:43.918Z,98715.48
2018-09-14T05:34:12.465Z,98720.28
2018-09-14T05:36:41.276Z,98720.00
2018-09-14T05:39:10.499Z,98723.36
2018-09-14T05:41:39.744Z,98722.75
2018-09-14T05:44:08.839Z,98726.18
2018-09-14T05:46:37.576Z,98722.69
2018-09-14T05:49:06.780Z,98732.49
2018-09-14T05:51:35.432Z,98733.63
2018-09-14T05:54:04.810Z,98739.12
2018-09-14T05:56:34.028Z,98741.80
2018-09-14T05:59:02.397Z,98742.40
2018-09-14T06:01:31.951Z,98751.54
2018-09-14T06:04:00.329Z,98747.38
2018-09-14T06:06:35.381Z,98753.62
2018-09-14T06:09:07.360Z,98754.80
2018-09-14T06:11:36.068Z,98753.47
2018-09-14T06:14:05.946Z,98754.36
2018-09-14T06:16:35.757Z,98755.31
2018-09-14T06:19:04.917Z,98753.05
2018-09-14T06:21:33.915Z,98747.50
2018-09-14T06:24:03.209Z,98747.56
2018-09-14T06:26:32.680Z,98751.47
2018-09-14T06:29:01.401Z,98751.43
2018-09-14T06:31:30.092Z,98760.39
2018-09-14T06:33:59.163Z,98759.14
2018-09-14T06:36:28.584Z,98753.93
2018-09-14T06:38:57.180Z,98753.27
2018-09-14T06:41:25.808Z,98748.47
2018-09-14T06:43:54.810Z,98753.82
2018-09-14T06:46:23.609Z,98753.59
2018-09-14T06:48:51.912Z,98754.61
2018-09-14T06:51:21.213Z,98754.97
2018-09-14T06:53:49.485Z,98749.29
2018-09-14T06:56:18.194Z,98744.88
2018-09-14T06:58:46.734Z,98741.50
2018-09-14T07:01:15.392Z,98746.55
2018-09-14T07:03:44.003Z,98746.84
2018-09-14T07:06:12.303Z,98750.10
2018-09-14T07:08:40.993Z,98746.78
2018-09-14T07:11:09.510Z,98747.57
2018-09-14T07:13:37.708Z,98750.98
2018-09-14T07:16:05.962Z,98754.57
2018-09-14T07:18:34.339Z,98754.55
2018-09-14T07:21:03.028Z,98756.39
2018-09-14T07:23:31.527Z,98758.20
2018-09-14T07:26:00.162Z,98760.04
2018-09-14T07:28:28.503Z,98766.47
2018-09-14T07:30:56.946Z,98777.53
2018-09-14T07:33:25.208Z,98775.54
2018-09-14T07:35:53.928Z,98780.87
2018-09-14T07:38:22.265Z,98781.83
2018-09-14T07:40:50.789Z,98779.02
2018-09-14T07:43:19.024Z,98783.13
2018-09-14T07:45:47.967Z,98778.67
2018-09-14T07:48:16.753Z,98782.70
2018-09-14T07:50:45.019Z,98781.36
2018-09-14T07:53:13.350Z,98781.80
2018-09-14T07:55:42.342Z,98781.39
2018-09-14T07:58:10.876Z,98778.62
2018-09-14T08:00:39.552Z,98780.39
2018-09-14T08:03:08.376Z,98777.84
2018-09-14T08:05:36.649Z,98785.41
2018-09-14T08:08:04.969Z,98784.39
2018-09-14T08:10:33.344Z,98785.27
2018-09-14T08:13:01.932Z,98790.64
2018-09-14T08:15:30.633Z,98791.69
2018-09-14T08:17:58.928Z,98793.67
2018-09-14T08:20:27.752Z,98797.27
2018-09-14T08:25:37.058Z,98799.05
2018-09-14T08:28:05.560Z,98799.00
2018-09-14T08:30:33.999Z,98802.31
2018-09-14T08:33:02.723Z,98810.32
2018-09-14T08:35:32.167Z,98809.23
2018-09-14T08:38:00.767Z,98814.34
2018-09-14T08:40:29.414Z,98815.45
2018-09-14T08:42:58.696Z,98813.32
2018-09-14T08:45:27.135Z,98812.71
2018-09-14T08:47:55.382Z,98817.05
2018-09-14T08:50:24.707Z,98811.95
2018-09-14T08:52:53.785Z,98819.20
2018-09-14T08:55:22.324Z,98814.09
2018-09-14T08:57:51.583Z,98822.38
2018-09-14T09:00:25.116Z,98818.47
2018-09-14T09:02:54.615Z,98824.08
2018-09-14T09:05:24.134Z,98827.37
2018-09-14T09:07:53.041Z,98823.39
2018-09-14T09:10:21.829Z,98826.00
2018-09-14T09:12:50.780Z,98828.14
2018-09-14T09:15:19.426Z,98824.05
2018-09-14T09:17:48.339Z,98819.77
2018-09-14T09:20:17.191Z,98822.24
2018-09-14T09:22:45.768Z,98822.36
2018-09-14T09:25:14.277Z,98822.61
2018-09-14T09:27:42.532Z,98822.23
2018-09-14T09:30:10.762Z,98823.45
2018-09-14T09:32:39.453Z,98820.84
2018-09-14T09:35:09.229Z,98816.75
2018-09-14T09:37:37.567Z,98824.12
2018-09-14T09:40:06.717Z,98819.17
2018-09-14T09:42:35.236Z,98822.20
2018-09-14T09:45:04.127Z,98817.66
2018-09-14T09:47:32.901Z,98815.96
2018-09-14T09:50:01.759Z,98818.34
2018-09-14T09:52:30.282Z,98813.16
2018-09-14T09:54:58.851Z,98810.99
2018-09-14T09:57:27.400Z,98808.86
2018-09-14T09:59:55.685Z,98807.80
2018-09-14T10:02:28.155Z,98805.66
2018-09-14T10:05:01.870Z,98808.48
2018-09-14T10:07:30.700Z,98812.02
2018-09-14T10:09:59.176Z,98811.06
2018-09-14T10:12:27.970Z,98817.08
2018-09-14T10:14:56.300Z,98814.91
2018-09-14T10:17:25.162Z,98819.02
2018-09-14T10:19:53.411Z,98819.19
2018-09-14T10:22:23.662Z,98820.22
2018-09-14T10:24:53.859Z,98820.41
2018-09-14T10:27:23.692Z,98825.04
2018-09-14T10:29:53.579Z,98817.17
2018-09-14T10:32:23.641Z,98821.90
2018-09-14T10:34:53.552Z,98823.29
2018-09-14T10:37:23.286Z,98821.08
2018-09-14T10:39:53.757Z,98819.78
2018-09-14T10:42:26.912Z,98811.44
2018-09-14T10:44:57.705Z,98812.58
2018-09-14T10:47:27.656Z,98808.35
2018-09-14T10:49:55.980Z,98808.14
2018-09-14T10:52:25.857Z,98804.73
2018-09-14T10:54:54.689Z,98804.09
2018-09-14T10:57:23.441Z,98807.79
2018-09-14T10:59:52.262Z,98798.69
2018-09-14T11:02:20.452Z,98800.95
2018-09-14T11:04:49.897Z,98801.71
2018-09-14T11:07:18.534Z,98796.04
2018-09-14T11:09:47.239Z,98797.45
2018-09-14T11:12:15.548Z,98801.11
2018-09-14T11:14:45.335Z,98797.31
2018-09-14T11:17:14.797Z,98795.04
2018-09-14T11:19:45.014Z,98792.59
2018-09-14T11:22:16.523Z,98790.91
2018-09-14T11:24:47.280Z,98787.03
2018-09-14T11:27:18.835Z,98784.17
2018-09-14T11:29:47.077Z,98790.36
2018-09-14T11:32:17.573Z,98787.18
2018-09-14T11:34:46.211Z,98783.70
2018-09-14T11:37:14.648Z,98777.70
2018-09-14T11:39:42.927Z,98775.06
2018-09-14T11:42:11.604Z,98772.11
2018-09-14T11:44:40.399Z,98779.14
2018-09-14T11:47:09.138Z,98774.64
2018-09-14T11:49:37.389Z,98771.32
2018-09-14T11:52:06.028Z,98778.59
2018-09-14T11:54:34.309Z,98769.56
2018-09-14T11:57:02.931Z,98763.25
2018-09-14T11:59:31.243Z,98763.80
2018-09-14T12:01:59.844Z,98758.16
2018-09-14T12:04:28.556Z,98761.63
2018-09-14T12:06:56.779Z,98761.07
2018-09-14T12:09:25.411Z,98762.28
2018-09-14T12:11:53.648Z,98764.74
2018-09-14T12:14:21.926Z,98762.03
2018-09-14T12:16:51.038Z,98761.67
2018-09-14T12:19:19.370Z,98762.02
2018-09-14T12:21:47.661Z,98753.37
2018-09-14T12:24:16.236Z,98753.80
2018-09-14T12:26:44.717Z,98749.79
2018-09-14T12:29:13.313Z,98746.72
2018-09-14T12:31:41.559Z,98749.11
2018-09-14T12:34:09.856Z,98747.65
2018-09-14T12:36:38.333Z,98748.47
2018-09-14T12:39:09.026Z,98743.53
2018-09-14T12:41:37.449Z,98741.56
2018-09-14T12:44:06.136Z,98734.42
2018-09-14T12:46:34.412Z,98735.06
2018-09-14T12:49:02.951Z,98733.44
2018-09-14T12:51:32.104Z,98736.19
2018-09-14T12:54:01.036Z,98731.45
2018-09-14T12:56:29.820Z,98732.66
2018-09-14T12:58:58.060Z,98729.29
2018-09-14T13:01:26.599Z,98730.24
2018-09-14T13:03:55.253Z,98723.96
2018-09-14T13:06:23.560Z,98729.34
2018-09-14T13:08:52.320Z,98729.16
2018-09-14T13:11:21.078Z,98725.20
2018-09-14T13:13:50.451Z,98722.84
2018-09-14T13:16:18.900Z,98722.44
2018-09-14T13:18:47.790Z,98718.37
2018-09-14T13:21:16.097Z,98715.73
2018-09-14T13:23:44.853Z,98725.33
2018-09-14T13:26:13.148Z,98716.75
2018-09-14T13:28:42.621Z,98717.70
2018-09-14T13:31:10.916Z,98710.47
2018-09-14T13:33:39.433Z,98707.20
2018-09-14T13:36:08.100Z,98706.45
2018-09-14T13:38:36.364Z,98706.38
2018-09-14T13:41:04.597Z,98696.42
2018-09-14T13:43:32.834Z,98699.02
2018-09-14T13:46:01.049Z,98698.72
2018-09-14T13:48:29.956Z,98690.55
2018-09-14T13:50:58.480Z,98694.11
2018-09-14T13:53:26.768Z,98695.19
2018-09-14T13:55:55.247Z,98690.13
2018-09-14T13:58:23.503Z,98690.97
2018-09-14T14:00:51.905Z,98686.84
2018-09-14T14:03:22.180Z,98695.36
2018-09-14T14:05:50.694Z,98694.44
2018-09-14T14:08:19.325Z,98692.77
2018-09-14T14:10:47.927Z,98693.53
2018-09-14T14:13:16.271Z,98683.23
2018-09-14T14:15:44.853Z,98687.38
2018-09-14T14:18:13.165Z,98683.34
2018-09-14T14:20:41.781Z,98680.88
2018-09-14T14:23:10.037Z,98678.28
2018-09-14T14:25:38.584Z,98678.55
2018-09-14T14:28:07.297Z,98677.21
2018-09-14T14:30:36.722Z,98672.77
2018-09-14T14:33:05.632Z,98673.20
2018-09-14T14:35:34.296Z,98677.16
2018-09-14T14:38:02.512Z,98678.75
2018-09-14T14:40:30.892Z,98669.23
2018-09-14T14:43:00.869Z,98670.81
2018-09-14T14:45:30.003Z,98672.66
2018-09-14T14:47:58.744Z,98681.70
2018-09-14T14:50:27.229Z,98675.41
2018-09-14T14:52:55.710Z,98671.89
2018-09-14T14:55:24.201Z,98669.85
2018-09-14T14:57:52.769Z,98670.05
2018-09-14T15:00:21.889Z,98669.68
2018-09-14T15:02:50.253Z,98665.02
2018-09-14T15:05:19.093Z,98665.20
2018-09-14T15:07:47.220Z,98669.51
2018-09-14T15:10:16.428Z,98664.46
2018-09-14T15:12:45.335Z,98661.97
2018-09-14T15:15:13.610Z,98666.25
2018-09-14T15:17:43.999Z,98667.89
2018-09-14T15:20:12.362Z,98664.98
2018-09-14T15:22:40.888Z,98664.78
2018-09-14T15:25:09.400Z,98666.61
2018-09-14T15:27:38.271Z,98656.14
2018-09-14T15:30:06.827Z,98663.53
2018-09-14T15:32:35.101Z,98663.91
2018-09-14T15:35:03.436Z,98665.14
2018-09-14T15:37:32.085Z,98668.16
2018-09-14T15:40:00.389Z,98667.19
2018-09-14T15:42:29.080Z,98671.86
2018-09-14T15:44:57.509Z,98668.13
2018-09-14T15:47:26.140Z,98666.11
2018-09-14T15:49:54.961Z,98668.02
2018-09-14T15:52:23.243Z,98661.08
2018-09-14T15:54:52.156Z,98664.77
2018-09-14T15:57:20.449Z,98671.92
2018-09-14T15:59:48.972Z,98671.10
2018-09-14T16:02:18.092Z,98675.89
2018-09-14T16:04:46.658Z,98674.84
2018-09-14T16:07:15.244Z,98678.70
2018-09-14T16:09:45.808Z,98674.53
2018-09-14T16:12:15.263Z,98681.05
2018-09-14T16:14:45.136Z,98679.06
2018-09-14T16:17:16.189Z,98674.98
2018-09-14T16:19:47.294Z,98668.31
2018-09-14T16:22:18.925Z,98676.22
2018-09-14T16:24:49.667Z,98681.23
2018-09-14T16:27:19.859Z,98685.06
2018-09-14T16:29:50.081Z,98685.43
2018-09-14T16:32:18.640Z,98690.03
2018-09-14T16:34:47.399Z,98684.35
2018-09-14T16:37:17.085Z,98680.47
2018-09-14T16:39:46.358Z,98684.21
2018-09-14T16:42:15.293Z,98679.20
2018-09-14T16:44:44.249Z,98682.23
2018-09-14T16:47:14.343Z,98678.98
2018-09-14T16:49:42.989Z,98675.75
2018-09-14T16:52:12.556Z,98676.42
2018-09-14T16:54:41.785Z,98670.80
2018-09-14T16:57:10.460Z,98671.27
2018-09-14T16:59:39.416Z,98669.02
2018-09-14T17:02:08.095Z,98667.30
2018-09-14T17:04:39.145Z,98672.13
2018-09-14T17:07:07.964Z,98673.13
2018-09-14T17:09:37.310Z,98679.02
2018-09-14T17:12:06.181Z,98684.73
2018-09-14T17:14:34.883Z,98687.20
2018-09-14T17:17:03.667Z,98689.14
2018-09-14T17:19:32.145Z,98688.66
2018-09-14T17:22:01.384Z,98698.41
2018-09-14T17:24:31.684Z,98695.36
2018-09-14T17:27:00.331Z,98691.42
2018-09-14T17:29:28.615Z,98692.48
2018-09-14T17:31:57.313Z,98690.84
2018-09-14T17:34:25.544Z,98693.83
2018-09-14T17:36:53.924Z,98685.66
2018-09-14T17:39:23.063Z,98694.84
2018-09-14T17:41:51.693Z,98701.98
2018-09-14T17:44:20.196Z,98713.80
2018-09-14T17:46:48.495Z,98720.96
2018-09-14T17:49:16.686Z,98716.08
2018-09-14T17:51:45.712Z,98719.96
2018-09-14T17:54:14.501Z,98715.25
2018-09-14T17:56:43.986Z,98718.66
2018-09-14T17:59:12.278Z,98724.88
2018-09-14T18:01:41.004Z,98717.67
2018-09-14T18:04:10.056Z,98720.28
2018-09-14T18:06:38.365Z,98718.17
2018-09-14T18:09:10.571Z,98727.32
2018-09-14T18:11:39.387Z,98730.11
2018-09-14T18:14:08.220Z,98736.31
2018-09-14T18:16:36.764Z,98734.69
2018-09-14T18:19:05.326Z,98746.43
2018-09-14T18:21:33.670Z,98742.66
2018-09-14T18:24:12.759Z,98745.13
2018-09-14T18:26:41.271Z,98747.24
2018-09-14T18:29:10.508Z,98742.34
2018-09-14T18:36:47.498Z,98753.54
2018-09-14T18:39:16.389Z,98757.30
2018-09-14T18:41:45.233Z,98751.52
2018-09-14T18:44:19.159Z,98754.81
2018-09-14T18:46:48.161Z,98752.70
2018-09-14T18:49:16.439Z,98755.44
2018-09-14T18:51:44.792Z,98753.75
2018-09-14T18:54:13.857Z,98761.15
2018-09-14T18:56:46.032Z,98764.77
2018-09-14T18:59:14.855Z,98767.16
2018-09-14T19:01:43.856Z,98763.96
2018-09-14T19:04:12.219Z,98770.17
2018-09-14T19:06:40.780Z,98770.41
2018-09-14T19:09:10.816Z,98767.76
2018-09-14T19:11:39.270Z,98773.16
2018-09-14T19:14:07.590Z,98774.28
2018-09-14T19:16:36.339Z,98781.50
2018-09-14T19:19:09.269Z,98776.89
2018-09-14T19:21:38.157Z,98775.73
2018-09-14T19:24:06.672Z,98781.78
2018-09-14T19:26:35.953Z,98785.98
2018-09-14T19:29:04.171Z,98792.83
2018-09-14T19:31:35.109Z,98791.18
2018-09-14T19:34:03.569Z,98788.34
2018-09-14T19:36:31.867Z,98789.28
2018-09-14T19:39:00.228Z,98791.18
2018-09-14T19:41:28.704Z,98794.48
2018-09-14T19:43:56.938Z,98790.78
2018-09-14T19:46:25.991Z,98784.48
2018-09-14T19:48:54.443Z,98787.38
2018-09-14T19:51:23.330Z,98784.97
2018-09-14T19:53:51.883Z,98785.13
2018-09-14T19:56:20.674Z,98790.88
2018-09-14T19:58:49.109Z,98785.93
2018-09-14T20:01:17.633Z,98787.41
2018-09-14T20:03:45.891Z,98783.66
2018-09-14T20:06:14.907Z,98791.27
2018-09-14T20:08:43.193Z,98787.55
2018-09-14T20:11:12.097Z,98781.11
2018-09-14T20:13:41.077Z,98783.52
2018-09-14T20:16:09.355Z,98781.70
2018-09-14T20:18:37.836Z,98780.98
2018-09-14T20:21:06.386Z,98789.50
2018-09-14T20:23:34.792Z,98789.67
2018-09-14T20:26:03.008Z,98790.61
2018-09-14T20:28:31.785Z,98792.53
2018-09-14T20:31:00.447Z,98785.31
2018-09-14T20:33:29.279Z,98787.80
2018-09-14T20:35:57.606Z,98786.14
2018-09-14T20:38:26.556Z,98788.48
2018-09-14T20:40:54.827Z,98779.92
2018-09-14T20:43:24.144Z,98778.79
2018-09-14T20:45:54.057Z,98778.62
2018-09-14T20:48:22.759Z,98778.52
2018-09-14T20:50:51.944Z,98780.09
2018-09-14T20:53:21.479Z,98778.00
2018-09-14T20:55:51.250Z,98783.39
2018-09-14T20:58:21.309Z,98780.69
2018-09-14T21:00:50.956Z,98776.45
2018-09-14T21:03:20.419Z,98783.64
2018-09-14T21:05:49.003Z,98778.17
2018-09-14T21:08:17.400Z,98779.95
2018-09-14T21:10:46.804Z,98777.17
2018-09-14T21:13:15.106Z,98779.13
2018-09-14T21:15:43.372Z,98778.00
2018-09-14T21:18:11.835Z,98780.09
2018-09-14T21:20:40.099Z,98781.05
2018-09-14T21:23:08.407Z,98776.44
2018-09-14T21:25:36.866Z,98781.89
2018-09-14T21:28:05.077Z,98783.44
2018-09-14T21:30:33.863Z,98786.16
2018-09-14T21:33:02.622Z,98785.63
2018-09-14T21:35:31.042Z,98786.90
2018-09-14T21:37:59.713Z,98788.49
2018-09-14T21:40:28.109Z,98789.56
2018-09-14T21:42:56.913Z,98790.22
2018-09-14T21:45:28.078Z,98782.45
2018-09-14T21:47:56.287Z,98786.58
2018-09-14T21:50:24.685Z,98790.70
2018-09-14T21:52:53.196Z,98799.11
2018-09-14T21:55:21.491Z,98801.53
2018-09-14T21:57:49.717Z,98796.03
2018-09-14T22:00:23.477Z,98798.94
2018-09-14T22:02:51.972Z,98804.11
2018-09-14T22:05:20.194Z,98813.25
2018-09-14T22:07:48.541Z,98813.16
2018-09-14T22:10:17.125Z,98813.97
2018-09-14T22:12:45.638Z,98811.06
2018-09-14T22:15:14.027Z,98808.75
2018-09-14T22:17:43.073Z,98802.76
2018-09-14T22:20:11.307Z,98798.28
2018-09-14T22:22:39.845Z,98798.89
2018-09-14T22:25:08.612Z,98797.06
2018-09-14T22:27:37.261Z,98803.89
2018-09-14T22:30:07.048Z,98799.55
2018-09-14T22:32:35.393Z,98807.63
2018-09-14T22:35:03.623Z,98811.72
2018-09-14T22:37:31.825Z,98815.62
2018-09-14T22:40:00.633Z,98815.08
2018-09-14T22:42:28.860Z,98822.38
2018-09-14T22:44:57.070Z,98826.20
2018-09-14T22:47:25.684Z,98833.08
2018-09-14T22:49:53.888Z,98833.33
2018-09-14T22:52:22.154Z,98836.52
2018-09-14T22:54:50.726Z,98838.50
2018-09-14T22:57:19.317Z,98844.59
2018-09-14T22:59:47.854Z,98843.37
2018-09-14T23:02:16.158Z,98842.50
2018-09-14T23:04:44.625Z,98841.50
2018-09-14T23:07:12.921Z,98840.50
2018-09-14T23:09:41.550Z,98833.39
2018-09-14T23:12:09.799Z,98838.86
2018-09-14T23:14:38.333Z,98842.25
2018-09-14T23:17:08.431Z,98837.64
2018-09-14T23:19:37.777Z,98836.34
2018-09-14T23:22:06.349Z,98843.06
2018-09-14T23:24:34.603Z,98841.38
2018-09-14T23:27:03.066Z,98843.71
2018-09-14T23:29:32.491Z,98840.75
2018-09-14T23:32:00.981Z,98843.71
2018-09-14T23:34:29.460Z,98840.05
2018-09-14T23:36:58.029Z,98844.64
2018-09-14T23:39:26.268Z,98843.11
2018-09-14T23:41:54.803Z,98842.20
2018-09-14T23:44:22.999Z,98839.33
2018-09-14T23:46:51.250Z,98842.02
2018-09-14T23:49:19.576Z,98844.26
2018-09-14T23:51:47.871Z,98841.23
2018-09-14T23:54:16.073Z,98848.95
2018-09-14T23:56:44.629Z,98848.53
2018-09-14T23:59:13.100Z,98849.23
